sensor_id;sensor_type;location;lat;lon;timestamp;pressure;altitude;pressure_sealevel;temperature;humidity
55550;BME280;41397;49.972;18.944;2023-04-10T00:00:14;102750.54;;;12.42;66.16
55550;BME280;41397;49.972;18.944;2023-04-10T00:03:20;102746.80;;;12.43;66.30
55550;BME280;41397;49.972;18.944;2023-04-10T00:06:25;102748.67;;;12.42;66.29
55550;BME280;41397;49.972;18.944;2023-04-10T00:09:29;102738.58;;;12.43;66.34
55550;BME280;41397;49.972;18.944;2023-04-10T00:12:31;102731.32;;;12.42;66.50
55550;BME280;41397;49.972;18.944;2023-04-10T00:15:32;102736.81;;;12.42;66.27
55550;BME280;41397;49.972;18.944;2023-04-10T00:18:33;102733.20;;;12.41;66.36
55550;BME280;41397;49.972;18.944;2023-04-10T00:21:38;102733.96;;;12.43;66.42
55550;BME280;41397;49.972;18.944;2023-04-10T00:24:39;102733.96;;;12.43;66.44
55550;BME280;41397;49.972;18.944;2023-04-10T00:27:41;102728.59;;;12.42;66.31
55550;BME280;41397;49.972;18.944;2023-04-10T00:30:42;102730.34;;;12.43;66.55
55550;BME280;41397;49.972;18.944;2023-04-10T00:33:44;102730.34;;;12.43;66.72
55550;BME280;41397;49.972;18.944;2023-04-10T00:36:45;102717.69;;;12.40;66.74
55550;BME280;41397;49.972;18.944;2023-04-10T00:39:47;102717.62;;;12.42;66.71
55550;BME280;41397;49.972;18.944;2023-04-10T00:42:50;102718.68;;;12.39;66.67
55550;BME280;41397;49.972;18.944;2023-04-10T00:45:51;102717.69;;;12.40;66.77
55550;BME280;41397;49.972;18.944;2023-04-10T00:48:54;102715.82;;;12.41;66.58
55550;BME280;41397;49.972;18.944;2023-04-10T00:51:57;102712.30;;;12.39;66.84
55550;BME280;41397;49.972;18.944;2023-04-10T00:54:58;102711.40;;;12.38;66.97
55550;BME280;41397;49.972;18.944;2023-04-10T00:58:00;102718.57;;;12.41;66.91
55550;BME280;41397;49.972;18.944;2023-04-10T01:01:02;102722.22;;;12.41;66.82
55550;BME280;41397;49.972;18.944;2023-04-10T01:04:04;102712.20;;;12.40;66.95
55550;BME280;41397;49.972;18.944;2023-04-10T01:07:15;102720.62;;;12.37;66.91
55550;BME280;41397;49.972;18.944;2023-04-10T01:13:44;102722.48;;;12.37;66.95
55550;BME280;41397;49.972;18.944;2023-04-10T01:16:54;102721.59;;;12.36;66.80
55550;BME280;41397;49.972;18.944;2023-04-10T01:20:03;102725.23;;;12.37;66.66
55550;BME280;41397;49.972;18.944;2023-04-10T01:29:33;102722.38;;;12.38;66.91
55550;BME280;41397;49.972;18.944;2023-04-10T01:32:40;102718.93;;;12.35;67.03
55550;BME280;41397;49.972;18.944;2023-04-10T01:35:48;102722.48;;;12.37;67.01
55550;BME280;41397;49.972;18.944;2023-04-10T01:38:52;102710.63;;;12.36;66.99
55550;BME280;41397;49.972;18.944;2023-04-10T01:41:56;102718.73;;;12.38;67.08
55550;BME280;41397;49.972;18.944;2023-04-10T01:45:00;102721.59;;;12.36;67.20
55550;BME280;41397;49.972;18.944;2023-04-10T01:48:06;102728.15;;;12.34;67.28
55550;BME280;41397;49.972;18.944;2023-04-10T01:51:08;102718.05;;;12.34;67.21
55550;BME280;41397;49.972;18.944;2023-04-10T01:54:11;102733.63;;;12.34;67.24
55550;BME280;41397;49.972;18.944;2023-04-10T01:57:14;102734.59;;;12.33;67.32
55550;BME280;41397;49.972;18.944;2023-04-10T02:00:16;102736.57;;;12.31;67.48
55550;BME280;41397;49.972;18.944;2023-04-10T02:03:18;102734.70;;;12.31;67.32
55550;BME280;41397;49.972;18.944;2023-04-10T02:09:52;102739.20;;;12.32;67.24
55550;BME280;41397;49.972;18.944;2023-04-10T02:13:00;102732.03;;;12.30;67.36
55550;BME280;41397;49.972;18.944;2023-04-10T02:16:06;102736.57;;;12.31;67.48
55550;BME280;41397;49.972;18.944;2023-04-10T02:19:12;102738.50;;;12.29;67.36
55550;BME280;41397;49.972;18.944;2023-04-10T02:22:18;102736.63;;;12.29;67.44
55550;BME280;41397;49.972;18.944;2023-04-10T02:25:20;102733.81;;;12.31;67.22
55550;BME280;41397;49.972;18.944;2023-04-10T02:28:22;102731.08;;;12.31;67.28
55550;BME280;41397;49.972;18.944;2023-04-10T02:31:23;102736.63;;;12.29;67.35
55550;BME280;41397;49.972;18.944;2023-04-10T02:34:26;102735.07;;;12.25;67.47
55550;BME280;41397;49.972;18.944;2023-04-10T02:37:28;102724.16;;;12.24;67.32
55550;BME280;41397;49.972;18.944;2023-04-10T02:40:29;102732.38;;;12.24;67.46
55550;BME280;41397;49.972;18.944;2023-04-10T02:43:31;102724.24;;;12.22;67.71
55550;BME280;41397;49.972;18.944;2023-04-10T02:46:34;102726.21;;;12.20;67.71
55550;BME280;41397;49.972;18.944;2023-04-10T02:49:35;102726.21;;;12.20;67.83
55550;BME280;41397;49.972;18.944;2023-04-10T02:52:37;102730.82;;;12.19;67.83
55550;BME280;41397;49.972;18.944;2023-04-10T02:55:38;102734.52;;;12.18;67.61
55550;BME280;41397;49.972;18.944;2023-04-10T02:58:42;102729.03;;;12.18;67.98
55550;BME280;41397;49.972;18.944;2023-04-10T03:01:49;102725.41;;;12.18;67.94
55550;BME280;41397;49.972;18.944;2023-04-10T03:04:51;102728.22;;;12.16;68.06
55550;BME280;41397;49.972;18.944;2023-04-10T03:07:53;102723.73;;;12.15;68.34
55550;BME280;41397;49.972;18.944;2023-04-10T03:10:55;102736.63;;;12.13;68.25
55550;BME280;41397;49.972;18.944;2023-04-10T03:13:56;102733.01;;;12.13;68.21
55550;BME280;41397;49.972;18.944;2023-04-10T03:17:01;102731.27;;;12.12;68.35
55550;BME280;41397;49.972;18.944;2023-04-10T03:20:02;102725.77;;;12.12;68.48
55550;BME280;41397;49.972;18.944;2023-04-10T03:23:04;102726.82;;;12.09;68.52
55550;BME280;41397;49.972;18.944;2023-04-10T03:26:06;102737.63;;;12.12;68.66
55550;BME280;41397;49.972;18.944;2023-04-10T03:29:08;102728.41;;;12.13;68.54
55550;BME280;41397;49.972;18.944;2023-04-10T03:32:10;102731.51;;;12.07;68.77
55550;BME280;41397;49.972;18.944;2023-04-10T03:35:11;102723.09;;;12.10;68.63
55550;BME280;41397;49.972;18.944;2023-04-10T03:38:13;102717.54;;;12.12;68.75
55550;BME280;41397;49.972;18.944;2023-04-10T03:41:15;102737.52;;;12.14;68.74
55550;BME280;41397;49.972;18.944;2023-04-10T03:44:17;102733.89;;;12.13;68.93
55550;BME280;41397;49.972;18.944;2023-04-10T03:47:19;102730.38;;;12.11;69.01
55550;BME280;41397;49.972;18.944;2023-04-10T03:50:20;102738.50;;;12.13;68.88
55550;BME280;41397;49.972;18.944;2023-04-10T03:53:22;102716.81;;;12.08;69.28
55550;BME280;41397;49.972;18.944;2023-04-10T03:56:24;102724.16;;;12.08;69.46
55550;BME280;41397;49.972;18.944;2023-04-10T03:59:26;102719.66;;;12.07;69.61
55550;BME280;41397;49.972;18.944;2023-04-10T04:02:27;102719.74;;;12.05;69.29
55550;BME280;41397;49.972;18.944;2023-04-10T04:05:29;102730.63;;;12.07;69.83
55550;BME280;41397;49.972;18.944;2023-04-10T04:08:31;102722.59;;;12.04;69.86
55550;BME280;41397;49.972;18.944;2023-04-10T04:11:32;102731.77;;;12.03;70.23
55550;BME280;41397;49.972;18.944;2023-04-10T04:14:33;102728.84;;;12.06;70.14
55550;BME280;41397;49.972;18.944;2023-04-10T04:17:35;102739.91;;;12.04;70.23
55550;BME280;41397;49.972;18.944;2023-04-10T04:20:36;102737.17;;;12.04;70.53
55550;BME280;41397;49.972;18.944;2023-04-10T04:23:38;102735.31;;;12.05;70.60
55550;BME280;41397;49.972;18.944;2023-04-10T04:26:40;102737.98;;;12.06;70.49
55550;BME280;41397;49.972;18.944;2023-04-10T04:29:41;102741.66;;;12.05;70.67
55550;BME280;41397;49.972;18.944;2023-04-10T04:32:42;102742.47;;;12.07;70.62
55550;BME280;41397;49.972;18.944;2023-04-10T04:35:48;102748.94;;;12.06;70.45
55550;BME280;41397;49.972;18.944;2023-04-10T04:38:50;102752.39;;;12.10;70.50
55550;BME280;41397;49.972;18.944;2023-04-10T04:41:52;102753.63;;;12.04;70.81
55550;BME280;41397;49.972;18.944;2023-04-10T04:44:53;102758.12;;;12.05;70.85
55550;BME280;41397;49.972;18.944;2023-04-10T04:47:55;102750.96;;;12.03;71.09
55550;BME280;41397;49.972;18.944;2023-04-10T04:50:57;102759.91;;;12.06;71.08
55550;BME280;41397;49.972;18.944;2023-04-10T04:53:58;102750.71;;;12.07;71.10
55550;BME280;41397;49.972;18.944;2023-04-10T04:57:00;102753.63;;;12.04;71.27
55550;BME280;41397;49.972;18.944;2023-04-10T05:00:04;102759.20;;;12.03;71.17
55550;BME280;41397;49.972;18.944;2023-04-10T05:03:06;102762.73;;;12.05;71.32
55550;BME280;41397;49.972;18.944;2023-04-10T05:06:08;102765.48;;;12.05;71.46
55550;BME280;41397;49.972;18.944;2023-04-10T05:09:09;102763.61;;;12.05;71.43
55550;BME280;41397;49.972;18.944;2023-04-10T05:12:11;102771.05;;;12.03;71.63
55550;BME280;41397;49.972;18.944;2023-04-10T05:15:13;102770.96;;;12.05;71.44
55550;BME280;41397;49.972;18.944;2023-04-10T05:18:15;102768.23;;;12.05;71.87
55550;BME280;41397;49.972;18.944;2023-04-10T05:21:23;102781.75;;;12.08;71.46
55550;BME280;41397;49.972;18.944;2023-04-10T05:24:24;102777.15;;;12.08;71.42
55550;BME280;41397;49.972;18.944;2023-04-10T05:27:27;102775.39;;;12.07;71.47
55550;BME280;41397;49.972;18.944;2023-04-10T05:30:28;102787.24;;;12.08;71.85
55550;BME280;41397;49.972;18.944;2023-04-10T05:33:30;102790.80;;;12.10;71.97
55550;BME280;41397;49.972;18.944;2023-04-10T05:36:31;102788.05;;;12.10;71.80
55550;BME280;41397;49.972;18.944;2023-04-10T05:39:33;102785.30;;;12.10;71.85
55550;BME280;41397;49.972;18.944;2023-04-10T05:42:34;102777.95;;;12.10;72.02
55550;BME280;41397;49.972;18.944;2023-04-10T05:45:35;102779.82;;;12.10;71.95
55550;BME280;41397;49.972;18.944;2023-04-10T05:48:38;102777.00;;;12.11;72.15
55550;BME280;41397;49.972;18.944;2023-04-10T05:51:39;102775.04;;;12.13;72.15
55550;BME280;41397;49.972;18.944;2023-04-10T05:54:40;102775.04;;;12.13;72.18
55550;BME280;41397;49.972;18.944;2023-04-10T05:57:42;102778.66;;;12.14;72.16
55550;BME280;41397;49.972;18.944;2023-04-10T06:00:44;102782.31;;;12.14;72.15
55550;BME280;41397;49.972;18.944;2023-04-10T06:03:46;102784.95;;;12.16;72.10
55550;BME280;41397;49.972;18.944;2023-04-10T06:06:48;102786.80;;;12.15;72.41
55550;BME280;41397;49.972;18.944;2023-04-10T06:09:52;102794.80;;;12.20;72.23
55550;BME280;41397;49.972;18.944;2023-04-10T06:12:54;102795.85;;;12.17;72.20
55550;BME280;41397;49.972;18.944;2023-04-10T06:15:55;102784.70;;;12.20;72.11
55550;BME280;41397;49.972;18.944;2023-04-10T06:18:57;102790.00;;;12.24;72.38
55550;BME280;41397;49.972;18.944;2023-04-10T06:25:24;102790.88;;;12.24;72.28
55550;BME280;41397;49.972;18.944;2023-04-10T06:28:25;102784.52;;;12.24;72.33
55550;BME280;41397;49.972;18.944;2023-04-10T06:31:27;102778.15;;;12.23;72.19
55550;BME280;41397;49.972;18.944;2023-04-10T06:34:40;102783.22;;;12.31;72.14
55550;BME280;41397;49.972;18.944;2023-04-10T06:37:50;102782.21;;;12.32;72.34
55550;BME280;41397;49.972;18.944;2023-04-10T06:40:51;102786.73;;;12.33;71.96
55550;BME280;41397;49.972;18.944;2023-04-10T06:54:21;102802.05;;;12.37;72.01
55550;BME280;41397;49.972;18.944;2023-04-10T07:00:56;102804.69;;;12.38;71.79
55550;BME280;41397;49.972;18.944;2023-04-10T07:04:09;102789.04;;;12.40;71.65
55550;BME280;41397;49.972;18.944;2023-04-10T07:07:11;102801.70;;;12.43;71.55
55550;BME280;41397;49.972;18.944;2023-04-10T07:10:15;102795.16;;;12.46;71.41
55550;BME280;41397;49.972;18.944;2023-04-10T07:13:19;102792.32;;;12.47;71.27
55550;BME280;41397;49.972;18.944;2023-04-10T07:16:37;102803.73;;;12.39;71.19
55550;BME280;41397;49.972;18.944;2023-04-10T07:19:41;102799.31;;;12.37;71.39
55550;BME280;41397;49.972;18.944;2023-04-10T07:22:43;102802.23;;;12.34;71.45
55550;BME280;41397;49.972;18.944;2023-04-10T07:26:02;102803.92;;;12.36;71.48
55550;BME280;41397;49.972;18.944;2023-04-10T07:29:13;102803.11;;;12.34;71.36
55550;BME280;41397;49.972;18.944;2023-04-10T07:32:18;102797.63;;;12.34;71.78
55550;BME280;41397;49.972;18.944;2023-04-10T07:35:20;102805.05;;;12.32;72.01
55550;BME280;41397;49.972;18.944;2023-04-10T07:38:33;102801.24;;;12.35;71.79
55550;BME280;41397;49.972;18.944;2023-04-10T07:41:34;102796.46;;;12.38;71.67
55550;BME280;41397;49.972;18.944;2023-04-10T07:44:36;102799.93;;;12.42;72.07
55550;BME280;41397;49.972;18.944;2023-04-10T07:47:37;102796.39;;;12.40;71.98
55550;BME280;41397;49.972;18.944;2023-04-10T07:50:39;102799.06;;;12.41;72.05
55550;BME280;41397;49.972;18.944;2023-04-10T07:53:40;102792.32;;;12.47;71.97
55550;BME280;41397;49.972;18.944;2023-04-10T07:56:42;102793.10;;;12.49;72.23
55550;BME280;41397;49.972;18.944;2023-04-10T07:59:46;102802.05;;;12.53;72.16
55550;BME280;41397;49.972;18.944;2023-04-10T08:02:48;102802.75;;;12.56;72.17
55550;BME280;41397;49.972;18.944;2023-04-10T08:05:49;102804.26;;;12.62;72.12
55550;BME280;41397;49.972;18.944;2023-04-10T08:08:55;102797.78;;;12.63;72.05
55550;BME280;41397;49.972;18.944;2023-04-10T08:11:57;102799.57;;;12.64;72.26
55550;BME280;41397;49.972;18.944;2023-04-10T08:14:58;102795.77;;;12.66;72.21
55550;BME280;41397;49.972;18.944;2023-04-10T08:18:00;102787.34;;;12.70;72.12
55550;BME280;41397;49.972;18.944;2023-04-10T08:21:06;102786.28;;;12.72;72.36
55550;BME280;41397;49.972;18.944;2023-04-10T08:24:10;102792.38;;;12.77;72.42
55550;BME280;41397;49.972;18.944;2023-04-10T08:27:12;102785.72;;;12.81;72.21
55550;BME280;41397;49.972;18.944;2023-04-10T08:30:24;102788.46;;;12.81;72.21
55550;BME280;41397;49.972;18.944;2023-04-10T08:33:25;102785.27;;;12.89;71.85
55550;BME280;41397;49.972;18.944;2023-04-10T08:36:29;102788.80;;;12.91;71.72
55550;BME280;41397;49.972;18.944;2023-04-10T08:39:34;102790.69;;;12.91;72.09
55550;BME280;41397;49.972;18.944;2023-04-10T08:42:39;102784.28;;;12.90;71.56
55550;BME280;41397;49.972;18.944;2023-04-10T08:45:44;102794.20;;;12.93;71.71
55550;BME280;41397;49.972;18.944;2023-04-10T08:52:14;102797.94;;;12.92;71.53
55550;BME280;41397;49.972;18.944;2023-04-10T08:55:17;102804.23;;;12.94;71.70
55550;BME280;41397;49.972;18.944;2023-04-10T08:58:19;102796.86;;;12.94;71.61
55550;BME280;41397;49.972;18.944;2023-04-10T09:01:24;102795.98;;;12.94;71.62
55550;BME280;41397;49.972;18.944;2023-04-10T09:04:26;102793.13;;;12.95;71.58
55550;BME280;41397;49.972;18.944;2023-04-10T09:07:27;102782.07;;;12.97;71.49
55550;BME280;41397;49.972;18.944;2023-04-10T09:10:32;102787.45;;;12.98;71.61
55550;BME280;41397;49.972;18.944;2023-04-10T09:13:40;102790.11;;;13.00;71.42
55550;BME280;41397;49.972;18.944;2023-04-10T09:16:52;102784.63;;;13.00;71.36
55550;BME280;41397;49.972;18.944;2023-04-10T09:19:55;102781.62;;;13.04;71.25
55550;BME280;41397;49.972;18.944;2023-04-10T09:22:57;102785.42;;;13.02;71.35
55550;BME280;41397;49.972;18.944;2023-04-10T09:25:58;102789.86;;;13.04;71.92
55550;BME280;41397;49.972;18.944;2023-04-10T09:29:02;102785.73;;;13.11;71.60
55550;BME280;41397;49.972;18.944;2023-04-10T09:32:04;102777.02;;;13.19;72.09
55550;BME280;41397;49.972;18.944;2023-04-10T09:35:06;102773.13;;;13.23;72.04
55550;BME280;41397;49.972;18.944;2023-04-10T09:41:51;102769.05;;;13.30;71.47
55550;BME280;41397;49.972;18.944;2023-04-10T09:44:54;102773.59;;;13.31;71.17
55550;BME280;41397;49.972;18.944;2023-04-10T09:48:07;102770.24;;;13.41;71.04
55550;BME280;41397;49.972;18.944;2023-04-10T09:54:34;102767.42;;;13.42;71.20
55550;BME280;41397;49.972;18.944;2023-04-10T09:57:38;102763.28;;;13.49;70.93
55550;BME280;41397;49.972;18.944;2023-04-10T10:00:47;102765.76;;;13.54;71.06
55550;BME280;41397;49.972;18.944;2023-04-10T10:03:49;102745.51;;;13.55;70.66
55550;BME280;41397;49.972;18.944;2023-04-10T10:13:49;102751.41;;;13.63;71.05
55550;BME280;41397;49.972;18.944;2023-04-10T10:16:56;102751.61;;;13.60;71.06
55550;BME280;41397;49.972;18.944;2023-04-10T10:20:06;102747.78;;;13.63;71.07
55550;BME280;41397;49.972;18.944;2023-04-10T10:23:09;102760.53;;;13.64;70.72
55550;BME280;41397;49.972;18.944;2023-04-10T10:26:11;102751.13;;;13.68;70.72
55550;BME280;41397;49.972;18.944;2023-04-10T10:29:16;102750.05;;;13.70;70.89
55550;BME280;41397;49.972;18.944;2023-04-10T10:32:22;102743.29;;;13.62;71.01
55550;BME280;41397;49.972;18.944;2023-04-10T10:35:25;102741.00;;;13.68;70.79
55550;BME280;41397;49.972;18.944;2023-04-10T10:38:36;102740.41;;;13.63;70.88
55550;BME280;41397;49.972;18.944;2023-04-10T10:41:53;102736.29;;;13.70;71.15
55550;BME280;41397;49.972;18.944;2023-04-10T10:48:10;102723.23;;;13.74;71.30
55550;BME280;41397;49.972;18.944;2023-04-10T10:51:14;102726.37;;;13.82;71.27
55550;BME280;41397;49.972;18.944;2023-04-10T10:58:03;102728.82;;;13.87;70.97
55550;BME280;41397;49.972;18.944;2023-04-10T11:01:24;102722.33;;;13.88;70.96
55550;BME280;41397;49.972;18.944;2023-04-10T11:10:59;102720.77;;;13.98;70.27
55550;BME280;41397;49.972;18.944;2023-04-10T11:14:18;102712.80;;;13.93;70.00
55550;BME280;41397;49.972;18.944;2023-04-10T11:21:27;102707.79;;;13.86;69.98
55550;BME280;41397;49.972;18.944;2023-04-10T11:24:01;102703.39;;;13.83;69.87
55550;BME280;41397;49.972;18.944;2023-04-10T11:27:05;102702.70;;;13.80;70.23
55550;BME280;41397;49.972;18.944;2023-04-10T11:33:21;102698.40;;;13.75;70.46
55550;BME280;41397;49.972;18.944;2023-04-10T11:36:27;102689.94;;;13.79;70.68
55550;BME280;41397;49.972;18.944;2023-04-10T11:39:32;102684.03;;;13.85;71.03
55550;BME280;41397;49.972;18.944;2023-04-10T11:42:33;102685.48;;;13.90;70.96
55550;BME280;41397;49.972;18.944;2023-04-10T11:45:35;102677.54;;;14.00;70.42
55550;BME280;41397;49.972;18.944;2023-04-10T11:48:37;102675.24;;;14.07;70.57
55550;BME280;41397;49.972;18.944;2023-04-10T11:51:39;102673.74;;;14.15;70.36
55550;BME280;41397;49.972;18.944;2023-04-10T11:54:48;102669.38;;;14.26;70.35
55550;BME280;41397;49.972;18.944;2023-04-10T11:57:51;102667.01;;;14.34;70.91
55550;BME280;41397;49.972;18.944;2023-04-10T12:00:57;102664.82;;;14.39;69.89
55550;BME280;41397;49.972;18.944;2023-04-10T12:03:59;102652.59;;;14.57;69.91
55550;BME280;41397;49.972;18.944;2023-04-10T12:07:04;102654.16;;;14.74;70.15
55550;BME280;41397;49.972;18.944;2023-04-10T12:10:07;102652.10;;;14.91;69.30
55550;BME280;41397;49.972;18.944;2023-04-10T12:13:32;102651.78;;;14.95;68.42
55550;BME280;41397;49.972;18.944;2023-04-10T12:16:24;102642.75;;;15.06;68.63
55550;BME280;41397;49.972;18.944;2023-04-10T12:19:27;102640.75;;;15.08;67.88
55550;BME280;41397;49.972;18.944;2023-04-10T12:22:31;102637.44;;;15.16;67.61
55550;BME280;41397;49.972;18.944;2023-04-10T12:25:32;102625.41;;;15.17;67.51
55550;BME280;41397;49.972;18.944;2023-04-10T12:28:37;102629.16;;;15.16;67.80
55550;BME280;41397;49.972;18.944;2023-04-10T12:31:39;102632.27;;;15.24;67.34
55550;BME280;41397;49.972;18.944;2023-04-10T12:34:41;102632.13;;;15.38;67.05
55550;BME280;41397;49.972;18.944;2023-04-10T12:37:51;102624.87;;;15.50;67.53
55550;BME280;41397;49.972;18.944;2023-04-10T12:41:01;102625.82;;;15.62;66.34
55550;BME280;41397;49.972;18.944;2023-04-10T12:44:11;102616.45;;;15.64;65.70
55550;BME280;41397;49.972;18.944;2023-04-10T12:47:12;102610.25;;;15.73;65.83
55550;BME280;41397;49.972;18.944;2023-04-10T12:50:15;102598.79;;;15.80;65.63
55550;BME280;41397;49.972;18.944;2023-04-10T12:53:17;102596.44;;;15.86;65.30
55550;BME280;41397;49.972;18.944;2023-04-10T12:56:20;102593.68;;;15.86;65.40
55550;BME280;41397;49.972;18.944;2023-04-10T12:59:21;102577.52;;;15.93;65.24
55550;BME280;41397;49.972;18.944;2023-04-10T13:02:23;102571.80;;;15.96;64.73
55550;BME280;41397;49.972;18.944;2023-04-10T13:05:24;102563.33;;;16.10;65.06
55550;BME280;41397;49.972;18.944;2023-04-10T13:08:26;102554.45;;;16.18;64.62
55550;BME280;41397;49.972;18.944;2023-04-10T13:11:28;102559.24;;;16.27;64.20
55550;BME280;41397;49.972;18.944;2023-04-10T13:14:29;102538.91;;;16.28;63.71
55550;BME280;41397;49.972;18.944;2023-04-10T13:17:31;102547.38;;;16.38;63.97
55550;BME280;41397;49.972;18.944;2023-04-10T13:20:33;102538.95;;;16.39;63.56
55550;BME280;41397;49.972;18.944;2023-04-10T13:23:36;102540.72;;;16.40;63.60
55550;BME280;41397;49.972;18.944;2023-04-10T13:26:37;102528.32;;;16.46;63.43
55550;BME280;41397;49.972;18.944;2023-04-10T13:29:40;102532.23;;;16.55;63.17
55550;BME280;41397;49.972;18.944;2023-04-10T13:32:42;102530.84;;;16.60;62.82
55550;BME280;41397;49.972;18.944;2023-04-10T13:35:44;102522.98;;;16.67;62.72
55550;BME280;41397;49.972;18.944;2023-04-10T13:38:45;102518.57;;;16.64;62.96
55550;BME280;41397;49.972;18.944;2023-04-10T13:41:47;102518.57;;;16.64;62.98
55550;BME280;41397;49.972;18.944;2023-04-10T13:44:48;102510.28;;;16.64;62.45
55550;BME280;41397;49.972;18.944;2023-04-10T13:47:50;102511.77;;;16.57;62.33
55550;BME280;41397;49.972;18.944;2023-04-10T13:50:55;102497.45;;;16.63;62.49
55550;BME280;41397;49.972;18.944;2023-04-10T13:53:56;102499.09;;;16.66;62.39
55550;BME280;41397;49.972;18.944;2023-04-10T13:56:59;102485.67;;;16.61;62.21
55550;BME280;41397;49.972;18.944;2023-04-10T14:00:00;102481.13;;;16.60;62.10
55550;BME280;41397;49.972;18.944;2023-04-10T14:03:04;102477.23;;;16.63;62.12
55550;BME280;41397;49.972;18.944;2023-04-10T14:06:15;102474.37;;;16.64;61.96
55550;BME280;41397;49.972;18.944;2023-04-10T14:09:16;102463.58;;;16.61;61.61
55550;BME280;41397;49.972;18.944;2023-04-10T14:12:18;102467.93;;;16.64;61.99
55550;BME280;41397;49.972;18.944;2023-04-10T14:15:23;102467.73;;;16.67;61.65
55550;BME280;41397;49.972;18.944;2023-04-10T14:18:24;102455.65;;;16.68;61.44
55550;BME280;41397;49.972;18.944;2023-04-10T14:21:26;102449.37;;;16.66;61.72
55550;BME280;41397;49.972;18.944;2023-04-10T14:24:28;102451.00;;;16.69;61.83
55550;BME280;41397;49.972;18.944;2023-04-10T14:27:30;102449.77;;;16.73;61.75
55550;BME280;41397;49.972;18.944;2023-04-10T14:30:34;102441.59;;;16.71;61.37
55550;BME280;41397;49.972;18.944;2023-04-10T14:33:37;102434.83;;;16.75;61.77
55550;BME280;41397;49.972;18.944;2023-04-10T14:36:38;102430.95;;;16.78;61.45
55550;BME280;41397;49.972;18.944;2023-04-10T14:39:40;102428.38;;;16.75;60.99
55550;BME280;41397;49.972;18.944;2023-04-10T14:42:43;102421.48;;;16.69;61.17
55550;BME280;41397;49.972;18.944;2023-04-10T14:45:46;102421.98;;;16.74;61.29
55550;BME280;41397;49.972;18.944;2023-04-10T14:48:48;102426.30;;;16.78;60.96
55550;BME280;41397;49.972;18.944;2023-04-10T14:51:50;102416.13;;;16.79;60.55
55550;BME280;41397;49.972;18.944;2023-04-10T14:54:52;102423.29;;;16.81;60.80
55550;BME280;41397;49.972;18.944;2023-04-10T14:57:53;102419.40;;;16.84;61.10
55550;BME280;41397;49.972;18.944;2023-04-10T15:00:55;102411.22;;;16.82;61.08
55550;BME280;41397;49.972;18.944;2023-04-10T15:03:56;102405.84;;;16.81;61.22
55550;BME280;41397;49.972;18.944;2023-04-10T15:06:58;102390.98;;;16.71;60.95
55550;BME280;41397;49.972;18.944;2023-04-10T15:10:00;102397.02;;;16.64;61.24
55550;BME280;41397;49.972;18.944;2023-04-10T15:13:02;102386.09;;;16.63;60.90
55550;BME280;41397;49.972;18.944;2023-04-10T15:16:04;102381.43;;;16.63;61.08
55550;BME280;41397;49.972;18.944;2023-04-10T15:19:08;102385.07;;;16.64;60.98
55550;BME280;41397;49.972;18.944;2023-04-10T15:22:09;102384.08;;;16.65;61.01
55550;BME280;41397;49.972;18.944;2023-04-10T15:25:11;102396.12;;;16.64;60.99
55550;BME280;41397;49.972;18.944;2023-04-10T15:28:12;102399.63;;;16.66;60.76
55550;BME280;41397;49.972;18.944;2023-04-10T15:31:14;102397.89;;;16.65;60.53
55550;BME280;41397;49.972;18.944;2023-04-10T15:34:16;102388.22;;;16.71;60.54
55550;BME280;41397;49.972;18.944;2023-04-10T15:37:18;102386.94;;;16.75;60.60
55550;BME280;41397;49.972;18.944;2023-04-10T15:40:20;102387.73;;;16.77;60.25
55550;BME280;41397;49.972;18.944;2023-04-10T15:43:22;102383.08;;;16.77;59.86
55550;BME280;41397;49.972;18.944;2023-04-10T15:46:24;102383.57;;;16.71;60.18
55550;BME280;41397;49.972;18.944;2023-04-10T15:49:25;102374.40;;;16.71;60.38
55550;BME280;41397;49.972;18.944;2023-04-10T15:52:27;102386.59;;;16.68;60.16
55550;BME280;41397;49.972;18.944;2023-04-10T15:55:31;102385.56;;;16.69;60.39
55550;BME280;41397;49.972;18.944;2023-04-10T15:58:33;102373.53;;;16.70;59.92
55550;BME280;41397;49.972;18.944;2023-04-10T16:01:34;102373.39;;;16.72;59.80
55550;BME280;41397;49.972;18.944;2023-04-10T16:04:36;102375.53;;;16.68;59.92
55550;BME280;41397;49.972;18.944;2023-04-10T16:07:37;102370.88;;;16.69;59.93
55550;BME280;41397;49.972;18.944;2023-04-10T16:10:43;102370.88;;;16.69;60.07
55550;BME280;41397;49.972;18.944;2023-04-10T16:13:45;102372.42;;;16.61;60.61
55550;BME280;41397;49.972;18.944;2023-04-10T16:16:46;102371.77;;;16.58;61.02
55550;BME280;41397;49.972;18.944;2023-04-10T16:19:50;102364.26;;;16.49;61.34
55550;BME280;41397;49.972;18.944;2023-04-10T16:22:52;102364.87;;;16.41;61.50
55550;BME280;41397;49.972;18.944;2023-04-10T16:25:54;102364.51;;;16.34;61.86
55550;BME280;41397;49.972;18.944;2023-04-10T16:28:55;102361.96;;;16.31;62.10
55550;BME280;41397;49.972;18.944;2023-04-10T16:31:57;102358.73;;;16.26;62.20
55550;BME280;41397;49.972;18.944;2023-04-10T16:34:58;102350.92;;;16.20;62.20
55550;BME280;41397;49.972;18.944;2023-04-10T16:38:02;102346.05;;;16.12;62.38
55550;BME280;41397;49.972;18.944;2023-04-10T16:42:35;102346.77;;;16.03;62.51
55550;BME280;41397;49.972;18.944;2023-04-10T16:45:37;102347.89;;;16.01;62.89
55550;BME280;41397;49.972;18.944;2023-04-10T16:48:39;102344.51;;;15.97;62.96
55550;BME280;41397;49.972;18.944;2023-04-10T16:51:43;102352.38;;;15.90;63.03
55550;BME280;41397;49.972;18.944;2023-04-10T16:54:44;102347.00;;;15.89;63.10